Time;durP1;ratioP1;P1;durP2;ratioP2;P2;SDS_P1;SDS_P2;PMS_P1;PMS_P2;Temp;Humidity;BMP_temperature;BMP_pressure;BME280_temperature;BME280_humidity;BME280_pressure;Samples;Min_cycle;Max_cycle;Signal;HPM_P1;HPM_P2
2023/03/24 00:00:10;;;;;;;3.30;2.38;;;;;;;15.13;69.22;98579.38;346116;28;1207;-69
2023/03/24 00:00:22;;;;;;;3.60;2.30;;;;;;;15.14;69.22;98578.41;345091;28;1171;-69
2023/03/24 00:00:35;;;;;;;3.67;2.40;;;;;;;15.14;69.13;98581.03;344240;28;2516;-69
2023/03/24 00:00:47;;;;;;;3.35;2.38;;;;;;;15.10;68.97;98578.72;343762;28;2436;-69
2023/03/24 00:01:03;;;;;;;3.35;2.38;;;;;;;15.08;69.07;98578.00;345022;28;1051;-69
2023/03/24 00:01:16;;;;;;;3.38;2.40;;;;;;;15.05;68.29;98581.69;344884;28;1058;-69
2023/03/24 00:01:29;;;;;;;3.78;2.50;;;;;;;15.04;68.10;98573.91;345177;28;1032;-69
2023/03/24 00:01:41;;;;;;;3.60;2.40;;;;;;;14.99;68.04;98582.09;345173;28;1718;-69
2023/03/24 00:01:53;;;;;;;3.65;2.28;;;;;;;14.97;67.96;98573.50;345953;28;1418;-69
2023/03/24 00:02:06;;;;;;;3.95;2.22;;;;;;;14.98;68.24;98577.78;346002;28;1217;-69
2023/03/24 00:02:19;;;;;;;3.47;2.20;;;;;;;14.99;68.05;98576.84;346189;28;1529;-69
2023/03/24 00:02:36;;;;;;;3.53;2.30;;;;;;;15.00;68.05;98573.28;346340;28;1244;-69
2023/03/24 00:02:50;;;;;;;4.05;2.30;;;;;;;15.00;68.00;98578.53;346330;28;1339;-69
2023/03/24 00:03:02;;;;;;;3.38;2.28;;;;;;;15.04;67.83;98572.13;346474;28;1125;-69
2023/03/24 00:03:16;;;;;;;3.22;2.28;;;;;;;15.03;67.83;98575.72;346290;28;1019;-69
2023/03/24 00:03:29;;;;;;;3.53;2.42;;;;;;;15.04;67.83;98577.38;344902;28;1019;-69
2023/03/24 00:03:44;;;;;;;3.75;2.50;;;;;;;15.07;67.85;98579.78;346042;28;1852;-69
2023/03/24 00:03:57;;;;;;;3.00;2.35;;;;;;;15.09;67.84;98577.91;346462;28;1023;-69
2023/03/24 00:04:10;;;;;;;2.67;2.30;;;;;;;15.11;67.63;98578.63;346388;28;1729;-69
2023/03/24 00:04:23;;;;;;;2.70;2.20;;;;;;;15.13;67.46;98583.75;346388;28;1137;-69
2023/03/24 00:04:37;;;;;;;2.72;2.10;;;;;;;15.15;67.75;98587.94;345740;28;1761;-69
2023/03/24 00:04:57;;;;;;;2.78;2.17;;;;;;;15.10;67.63;98587.41;346259;28;1187;-69
2023/03/24 00:05:12;;;;;;;2.60;2.25;;;;;;;15.13;67.68;98586.34;344857;28;1297;-69
2023/03/24 00:05:27;;;;;;;2.67;2.23;;;;;;;15.13;68.12;98589.84;344427;28;1143;-69
2023/03/24 00:05:39;;;;;;;2.70;2.25;;;;;;;15.11;69.38;98586.50;344829;28;1121;-69
2023/03/24 00:06:00;;;;;;;3.08;2.35;;;;;;;15.10;69.53;98584.81;343827;28;1581;-69
2023/03/24 00:06:13;;;;;;;3.63;2.53;;;;;;;15.11;69.91;98589.09;343075;28;1727;-69
2023/03/24 00:06:27;;;;;;;3.10;2.55;;;;;;;15.09;70.13;98588.38;344286;28;1930;-69
2023/03/24 00:06:39;;;;;;;3.45;2.60;;;;;;;15.10;70.13;98590.03;343998;28;1169;-69
2023/03/24 00:06:52;;;;;;;3.67;2.60;;;;;;;15.11;69.99;98586.50;344872;28;1324;-69
2023/03/24 00:07:05;;;;;;;3.90;2.70;;;;;;;15.11;70.00;98591.72;344627;28;1259;-69
2023/03/24 00:07:18;;;;;;;4.20;2.80;;;;;;;15.11;69.98;98583.88;343093;28;1003;-69
2023/03/24 00:07:32;;;;;;;4.20;2.95;;;;;;;15.12;70.00;98577.69;343308;28;1327;-69
2023/03/24 00:07:45;;;;;;;3.90;2.60;;;;;;;15.11;70.17;98581.25;343637;28;1425;-69
2023/03/24 00:08:01;;;;;;;3.97;2.67;;;;;;;15.11;70.33;98581.25;343203;28;1259;-69
2023/03/24 00:08:15;;;;;;;4.22;3.00;;;;;;;15.07;70.39;98581.53;342300;28;1226;-69
2023/03/24 00:08:30;;;;;;;4.32;3.08;;;;;;;15.05;70.41;98576.44;342214;28;1230;-69
2023/03/24 00:08:42;;;;;;;3.85;2.97;;;;;;;15.04;70.46;98572.13;342650;28;1234;-69
2023/03/24 00:08:54;;;;;;;3.88;2.83;;;;;;;15.04;70.43;98573.91;342204;28;1031;-69
2023/03/24 00:09:06;;;;;;;3.92;2.78;;;;;;;15.02;70.52;98574.03;342226;28;1011;-69
2023/03/24 00:09:19;;;;;;;3.60;2.63;;;;;;;15.03;70.68;98583.56;342855;28;1519;-69
2023/03/24 00:09:31;;;;;;;3.15;2.47;;;;;;;15.02;70.34;98571.41;344991;28;1787;-69
2023/03/24 00:09:43;;;;;;;3.40;2.40;;;;;;;15.03;70.47;98575.72;346242;28;1071;-69
2023/03/24 00:09:55;;;;;;;4.15;2.65;;;;;;;15.02;70.40;98574.03;346367;28;1187;-69
2023/03/24 00:10:11;;;;;;;4.70;2.70;;;;;;;15.01;70.30;98569.75;345901;28;1204;-69
2023/03/24 00:10:23;;;;;;;3.75;2.70;;;;;;;15.01;70.32;98574.97;345768;28;1630;-69
2023/03/24 00:10:35;;;;;;;3.25;2.70;;;;;;;15.01;70.39;98568.88;345057;28;1051;-69
2023/03/24 00:10:47;;;;;;;3.58;2.85;;;;;;;14.98;70.34;98569.94;345650;28;1683;-69
2023/03/24 00:11:03;;;;;;;3.80;3.05;;;;;;;14.98;70.24;98570.75;346507;28;1105;-69
2023/03/24 00:11:17;;;;;;;3.72;3.20;;;;;;;14.95;70.32;98570.13;346499;28;1083;-69
2023/03/24 00:11:32;;;;;;;3.83;3.30;;;;;;;14.85;70.38;98571.69;346389;28;1168;-69
2023/03/24 00:11:45;;;;;;;3.92;3.33;;;;;;;14.84;69.90;98567.41;345442;28;1746;-69
2023/03/24 00:11:57;;;;;;;4.13;3.28;;;;;;;14.83;69.70;98568.34;346376;28;1242;-69
2023/03/24 00:12:12;;;;;;;3.85;2.92;;;;;;;14.78;69.66;98566.03;346568;28;1079;-69
2023/03/24 00:12:25;;;;;;;3.78;2.40;;;;;;;14.82;69.78;98566.69;346391;28;1096;-69
2023/03/24 00:12:38;;;;;;;4.03;2.63;;;;;;;14.79;69.71;98567.75;346179;28;1201;-69
2023/03/24 00:12:51;;;;;;;5.53;2.83;;;;;;;14.82;69.64;98564.06;346552;28;1410;-69
2023/03/24 00:13:04;;;;;;;5.88;2.80;;;;;;;14.84;69.70;98563.00;346042;28;1499;-69
2023/03/24 00:13:18;;;;;;;4.60;2.63;;;;;;;14.84;69.69;98564.81;346161;28;1020;-69
2023/03/24 00:13:31;;;;;;;3.57;2.67;;;;;;;14.84;69.71;98575.28;346047;28;1300;-69
2023/03/24 00:13:48;;;;;;;3.58;2.78;;;;;;;14.84;69.71;98567.41;346082;28;1673;-69
2023/03/24 00:14:02;;;;;;;3.00;2.40;;;;;;;14.86;69.55;98570.78;345018;28;1175;-69
2023/03/24 00:14:14;;;;;;;3.92;2.50;;;;;;;14.88;69.22;98563.66;344873;28;1169;-69
2023/03/24 00:14:29;;;;;;;3.90;2.50;;;;;;;14.90;69.40;98574.84;345218;28;1253;-69
2023/03/24 00:14:41;;;;;;;2.78;2.28;;;;;;;14.82;69.28;98564.06;345457;28;1664;-69
2023/03/24 00:14:53;;;;;;;2.65;2.28;;;;;;;14.80;68.80;98571.19;346445;28;1503;-69
2023/03/24 00:15:07;;;;;;;3.38;2.33;;;;;;;14.75;69.13;98572.34;346342;28;1297;-69
2023/03/24 00:15:20;;;;;;;3.70;2.58;;;;;;;14.77;69.07;98573.06;346661;28;1089;-69
2023/03/24 00:15:33;;;;;;;3.10;2.53;;;;;;;14.78;69.40;98569.50;346468;28;1034;-69
2023/03/24 00:15:47;;;;;;;3.15;2.38;;;;;;;14.77;69.33;98573.06;346178;28;1453;-69
2023/03/24 00:16:03;;;;;;;3.20;2.23;;;;;;;14.74;69.40;98568.03;346435;28;1143;-69
2023/03/24 00:16:18;;;;;;;3.00;2.30;;;;;;;14.73;69.55;98571.59;345801;28;1117;-69
2023/03/24 00:16:33;;;;;;;4.10;2.50;;;;;;;14.71;69.75;98563.00;345326;28;1082;-69
2023/03/24 00:16:45;;;;;;;3.97;2.47;;;;;;;14.71;69.54;98562.19;344964;28;2104;-69
2023/03/24 00:16:58;;;;;;;2.88;2.50;;;;;;;14.70;69.71;98571.78;345594;28;1050;-69
2023/03/24 00:17:12;;;;;;;2.90;2.40;;;;;;;14.72;69.49;98569.91;346168;28;1082;-69
2023/03/24 00:17:28;;;;;;;2.70;2.20;;;;;;;14.73;69.54;98570.78;346029;28;1011;-69
2023/03/24 00:17:40;;;;;;;2.95;2.08;;;;;;;14.74;69.35;98573.25;346161;28;1034;-69
2023/03/24 00:17:54;;;;;;;3.33;2.30;;;;;;;14.68;69.50;98573.66;346335;28;1261;-69
2023/03/24 00:18:09;;;;;;;3.28;2.30;;;;;;;14.65;69.68;98573.88;346190;28;982;-68
2023/03/24 00:18:24;;;;;;;3.45;2.25;;;;;;;14.63;69.69;98575.78;346101;28;1221;-68
2023/03/24 00:18:38;;;;;;;3.63;2.30;;;;;;;14.65;70.02;98573.88;345767;28;1598;-68
2023/03/24 00:18:51;;;;;;;3.03;2.15;;;;;;;14.66;69.88;98565.09;345920;28;1133;-68
2023/03/24 00:19:05;;;;;;;3.40;2.30;;;;;;;14.64;69.83;98563.53;345792;28;1265;-69
2023/03/24 00:19:18;;;;;;;3.63;2.25;;;;;;;14.64;69.59;98572.19;346082;28;1266;-69
2023/03/24 00:19:32;;;;;;;3.20;2.10;;;;;;;14.68;69.54;98570.22;346308;28;1057;-69
2023/03/24 00:19:45;;;;;;;2.80;2.10;;;;;;;14.69;69.34;98574.50;346283;28;1387;-69
2023/03/24 00:19:57;;;;;;;2.80;2.10;;;;;;;14.71;69.53;98562.19;345833;28;1190;-69
2023/03/24 00:20:15;;;;;;;3.00;2.20;;;;;;;14.67;69.50;98566.78;346202;28;1253;-69
2023/03/24 00:20:28;;;;;;;4.72;2.30;;;;;;;14.66;69.81;98565.09;345629;28;1805;-69
2023/03/24 00:20:41;;;;;;;4.65;2.38;;;;;;;14.64;69.60;98561.75;345512;28;1265;-69
2023/03/24 00:20:57;;;;;;;4.13;2.38;;;;;;;14.61;69.65;98561.97;346195;28;1417;-69
2023/03/24 00:21:10;;;;;;;4.22;2.15;;;;;;;14.59;69.67;98561.22;346307;28;999;-69
2023/03/24 00:21:24;;;;;;;3.08;2.05;;;;;;;14.63;69.44;98561.84;346424;28;1571;-69
2023/03/24 00:21:36;;;;;;;2.92;1.90;;;;;;;14.67;69.36;98560.69;346184;28;1263;-69
2023/03/24 00:21:48;;;;;;;2.65;2.00;;;;;;;14.68;69.33;98557.97;345617;28;1843;-69
2023/03/24 00:22:01;;;;;;;2.92;1.98;;;;;;;14.70;69.31;98560.50;346348;28;1085;-69
2023/03/24 00:22:17;;;;;;;3.20;2.10;;;;;;;14.71;69.29;98557.78;346262;28;1171;-69
2023/03/24 00:22:29;;;;;;;3.35;2.28;;;;;;;14.69;69.12;98556.19;346383;28;1187;-69
2023/03/24 00:22:47;;;;;;;3.50;2.08;;;;;;;14.71;69.07;98565.63;346405;28;1062;-69
2023/03/24 00:22:59;;;;;;;4.30;2.10;;;;;;;14.74;68.96;98569.81;346515;28;1361;-69
2023/03/24 00:23:11;;;;;;;3.95;2.20;;;;;;;14.76;68.84;98560.91;346206;28;1292;-69
2023/03/24 00:23:25;;;;;;;2.83;2.13;;;;;;;14.78;68.92;98561.66;346537;28;1264;-69
2023/03/24 00:23:41;;;;;;;2.85;2.20;;;;;;;14.80;69.11;98556.31;346276;28;1067;-69
2023/03/24 00:23:54;;;;;;;2.80;2.25;;;;;;;14.84;68.85;98556.97;346372;28;1361;-69
2023/03/24 00:24:07;;;;;;;2.30;2.05;;;;;;;14.84;69.10;98556.97;345678;28;1726;-69
2023/03/24 00:24:20;;;;;;;3.25;2.10;;;;;;;14.84;68.90;98555.16;346093;28;1690;-69
2023/03/24 00:24:33;;;;;;;3.55;2.20;;;;;;;14.85;68.78;98556.84;346409;28;1087;-69
2023/03/24 00:24:45;;;;;;;4.00;2.25;;;;;;;14.86;68.77;98555.06;346293;28;1374;-69
2023/03/24 00:24:57;;;;;;;3.10;2.03;;;;;;;14.89;68.70;98560.94;346505;28;1030;-69
2023/03/24 00:25:10;;;;;;;3.05;2.00;;;;;;;14.90;68.84;98557.38;346371;28;1068;-69
2023/03/24 00:25:28;;;;;;;3.17;2.05;;;;;;;14.92;68.59;98554.66;346321;28;1257;-69
2023/03/24 00:25:40;;;;;;;3.30;2.10;;;;;;;14.90;69.00;98549.53;346638;28;1101;-69
2023/03/24 00:26:14;;;;;;;3.20;2.30;;;;;;;14.93;68.96;98556.31;346512;28;1322;-69
2023/03/24 00:26:27;;;;;;;2.90;2.13;;;;;;;14.93;68.79;98556.31;345525;28;1359;-69
2023/03/24 00:26:40;;;;;;;3.05;2.10;;;;;;;14.93;68.78;98549.31;346415;28;1050;-69
2023/03/24 00:26:56;;;;;;;3.13;1.90;;;;;;;14.92;68.51;98557.28;346387;28;1393;-69
2023/03/24 00:27:12;;;;;;;3.33;1.90;;;;;;;14.87;68.63;98554.13;345719;28;1737;-69
2023/03/24 00:27:24;;;;;;;3.75;2.00;;;;;;;14.89;68.58;98552.22;345148;28;1275;-69
2023/03/24 00:27:37;;;;;;;3.90;2.00;;;;;;;14.88;68.50;98550.56;345025;28;1292;-69
2023/03/24 00:27:50;;;;;;;3.28;1.90;;;;;;;14.90;68.54;98551.31;345239;28;1743;-69
2023/03/24 00:28:04;;;;;;;2.78;1.88;;;;;;;14.91;68.42;98547.72;346253;28;1173;-69
2023/03/24 00:28:16;;;;;;;3.83;1.90;;;;;;;14.94;68.44;98547.53;346624;28;1969;-69
2023/03/24 00:28:32;;;;;;;4.05;1.90;;;;;;;14.96;68.08;98548.28;346504;28;1081;-69
2023/03/24 00:28:46;;;;;;;3.27;1.90;;;;;;;14.99;68.14;98550.69;346396;28;1374;-69
2023/03/24 00:28:59;;;;;;;2.63;1.85;;;;;;;15.00;68.09;98541.06;346468;28;984;-69
2023/03/24 00:29:12;;;;;;;2.90;1.90;;;;;;;15.01;67.92;98540.97;346390;28;1075;-69
2023/03/24 00:29:24;;;;;;;3.33;2.00;;;;;;;15.05;68.09;98549.41;346311;28;1132;-69
2023/03/24 00:29:37;;;;;;;3.53;1.95;;;;;;;15.06;67.98;98546.69;346311;28;1248;-69
2023/03/24 00:29:49;;;;;;;3.40;1.90;;;;;;;15.07;68.13;98543.16;345027;28;1725;-69
2023/03/24 00:30:04;;;;;;;3.10;1.92;;;;;;;15.07;68.19;98543.16;346685;28;1639;-69
2023/03/24 00:30:19;;;;;;;2.35;1.80;;;;;;;15.09;68.17;98543.88;346468;28;1192;-69
2023/03/24 00:30:32;;;;;;;2.85;1.70;;;;;;;15.11;68.09;98539.38;345281;28;1158;-69
2023/03/24 00:30:51;;;;;;;2.78;1.70;;;;;;;15.12;67.94;98541.03;344798;28;1594;-69
2023/03/24 00:31:05;;;;;;;2.95;1.90;;;;;;;15.13;67.86;98537.50;346075;28;1306;-69
2023/03/24 00:31:17;;;;;;;3.13;2.05;;;;;;;15.15;67.86;98539.97;344817;28;1239;-69
2023/03/24 00:31:30;;;;;;;2.75;2.17;;;;;;;15.15;67.88;98539.97;344880;28;1071;-69
2023/03/24 00:31:42;;;;;;;2.63;2.10;;;;;;;15.16;67.99;98542.50;344602;28;1727;-69
2023/03/24 00:31:54;;;;;;;2.60;2.00;;;;;;;15.18;67.78;98540.59;344426;28;1457;-69
2023/03/24 00:32:07;;;;;;;2.67;1.92;;;;;;;15.18;67.67;98530.13;344836;28;1019;-69
2023/03/24 00:32:19;;;;;;;2.42;1.92;;;;;;;15.20;67.85;98537.88;344829;28;1166;-69
2023/03/24 00:32:31;;;;;;;2.60;1.98;;;;;;;15.19;67.71;98533.59;344851;28;1253;-69
2023/03/24 00:32:45;;;;;;;3.00;1.88;;;;;;;15.20;67.71;98542.28;345168;28;1120;-69
2023/03/24 00:32:57;;;;;;;3.13;1.80;;;;;;;15.18;67.48;98527.53;344795;28;1162;-69
2023/03/24 00:33:10;;;;;;;2.45;1.73;;;;;;;15.15;67.90;98540.84;344854;28;1047;-69
2023/03/24 00:33:23;;;;;;;2.90;1.77;;;;;;;15.12;67.75;98538.41;345753;28;1320;-69
2023/03/24 00:33:36;;;;;;;2.50;1.67;;;;;;;15.11;67.71;98534.13;344035;28;1518;-69
2023/03/24 00:33:49;;;;;;;2.42;1.70;;;;;;;15.12;67.80;98535.81;344663;28;1369;-69
2023/03/24 00:34:01;;;;;;;2.47;1.83;;;;;;;15.10;67.45;98535.06;343741;28;1753;-69
2023/03/24 00:34:14;;;;;;;2.00;1.77;;;;;;;15.09;67.69;98538.66;344442;28;1619;-69
2023/03/24 00:34:26;;;;;;;1.92;1.73;;;;;;;15.09;67.80;98536.03;344838;28;1058;-69
2023/03/24 00:34:38;;;;;;;2.08;1.70;;;;;;;15.10;67.77;98535.06;343675;28;1064;-69
2023/03/24 00:34:51;;;;;;;2.33;1.77;;;;;;;15.09;67.77;98525.56;344035;28;1664;-69
2023/03/24 00:35:07;;;;;;;2.20;1.63;;;;;;;15.08;67.68;98531.72;345984;28;1133;-69
2023/03/24 00:35:20;;;;;;;2.00;1.50;;;;;;;15.04;67.95;98527.66;346190;28;1164;-69
2023/03/24 00:35:33;;;;;;;2.25;1.80;;;;;;;15.00;67.77;98530.59;346150;28;1156;-69
2023/03/24 00:35:47;;;;;;;2.63;1.90;;;;;;;15.01;67.75;98524.41;346221;28;1272;-69
2023/03/24 00:36:00;;;;;;;3.72;1.80;;;;;;;15.00;67.65;98520.94;346270;28;1050;-69
2023/03/24 00:36:12;;;;;;;3.75;1.80;;;;;;;15.01;67.63;98522.63;345021;28;1728;-69
2023/03/24 00:36:27;;;;;;;3.08;1.90;;;;;;;15.02;67.68;98524.28;345439;28;1458;-69
2023/03/24 00:36:39;;;;;;;2.63;1.70;;;;;;;15.04;67.53;98522.41;345938;28;935;-69
2023/03/24 00:36:51;;;;;;;2.50;1.50;;;;;;;15.06;67.74;98525.75;346083;28;1288;-69
2023/03/24 00:37:05;;;;;;;2.20;1.60;;;;;;;15.08;67.63;98518.63;346085;28;1127;-69
2023/03/24 00:37:17;;;;;;;2.30;1.73;;;;;;;15.06;67.67;98523.13;346003;28;1145;-69
2023/03/24 00:37:29;;;;;;;2.53;1.77;;;;;;;15.07;67.41;98522.22;345867;28;1465;-69
2023/03/24 00:37:41;;;;;;;2.25;1.75;;;;;;;15.08;67.34;98523.88;346082;28;1140;-69
2023/03/24 00:37:53;;;;;;;1.90;1.67;;;;;;;15.08;67.44;98518.63;345757;28;1154;-69
2023/03/24 00:38:05;;;;;;;3.50;1.70;;;;;;;15.05;67.30;98524.09;345752;28;1689;-69
2023/03/24 00:38:18;;;;;;;3.40;1.67;;;;;;;15.06;67.07;98520.53;345985;28;1117;-69
2023/03/24 00:38:33;;;;;;;3.67;1.80;;;;;;;15.03;67.32;98520.75;346108;28;1275;-69
2023/03/24 00:38:47;;;;;;;2.22;1.80;;;;;;;15.04;67.23;98522.41;346079;28;1340;-69
2023/03/24 00:38:59;;;;;;;2.20;1.73;;;;;;;15.07;67.27;98522.22;346281;28;1282;-69
2023/03/24 00:39:11;;;;;;;2.75;1.80;;;;;;;15.08;67.05;98518.63;346365;28;1023;-69
2023/03/24 00:39:23;;;;;;;2.47;1.80;;;;;;;15.08;67.00;98513.41;346357;28;1204;-69
2023/03/24 00:39:36;;;;;;;2.00;1.80;;;;;;;15.07;67.16;98516.13;346599;28;1117;-69
2023/03/24 00:39:49;;;;;;;1.92;1.63;;;;;;;15.09;66.92;98512.47;345763;28;1583;-69
2023/03/24 00:40:01;;;;;;;2.53;1.80;;;;;;;15.10;67.10;98516.75;345079;28;1042;-69
2023/03/24 00:40:15;;;;;;;2.60;1.85;;;;;;;15.11;66.79;98520.19;345205;28;1574;-69
2023/03/24 00:40:28;;;;;;;2.25;1.83;;;;;;;15.06;66.93;98515.28;345597;28;1596;-69
2023/03/24 00:40:45;;;;;;;2.22;1.60;;;;;;;15.07;66.77;98514.38;346539;28;1231;-69
2023/03/24 00:40:58;;;;;;;2.00;1.50;;;;;;;15.09;66.85;98520.31;346603;28;1049;-69
2023/03/24 00:41:11;;;;;;;1.60;1.50;;;;;;;15.07;66.90;98516.97;346379;28;1018;-69
2023/03/24 00:41:25;;;;;;;2.15;1.55;;;;;;;15.07;66.86;98516.97;346487;28;1089;-69
2023/03/24 00:41:38;;;;;;;2.72;1.70;;;;;;;15.06;66.78;98519.69;346440;28;1194;-69
2023/03/24 00:41:50;;;;;;;3.10;1.75;;;;;;;15.04;66.66;98522.41;345654;28;1607;-69
2023/03/24 00:42:03;;;;;;;3.30;1.70;;;;;;;15.04;66.70;98522.41;346167;28;1049;-69
2023/03/24 00:42:16;;;;;;;3.10;1.60;;;;;;;15.02;66.52;98521.69;346206;28;1177;-68
2023/03/24 00:42:30;;;;;;;2.22;1.60;;;;;;;15.04;66.47;98526.81;346084;28;1039;-68
2023/03/24 00:42:45;;;;;;;2.28;1.70;;;;;;;15.03;66.52;98515.50;343656;28;1241;-68
2023/03/24 00:42:58;;;;;;;2.65;1.80;;;;;;;15.00;66.45;98523.56;342258;28;1499;-69
2023/03/24 00:43:12;;;;;;;2.55;1.75;;;;;;;15.00;66.48;98525.34;341076;29;1034;-69
2023/03/24 00:43:24;;;;;;;2.97;1.80;;;;;;;15.02;66.52;98518.22;341111;28;1215;-69
2023/03/24 00:43:36;;;;;;;2.70;1.80;;;;;;;15.04;66.51;98527.66;342838;28;1649;-69
2023/03/24 00:43:49;;;;;;;2.35;1.60;;;;;;;15.03;66.64;98520.75;342708;28;1326;-69
2023/03/24 00:44:04;;;;;;;3.25;1.60;;;;;;;15.05;66.57;98521.47;342353;28;1101;-69
2023/03/24 00:44:17;;;;;;;3.20;1.60;;;;;;;15.06;66.88;98515.28;343339;28;1178;-69
2023/03/24 00:44:29;;;;;;;3.05;1.63;;;;;;;15.06;66.73;98512.66;342200;28;1031;-69
2023/03/24 00:44:43;;;;;;;3.85;1.63;;;;;;;15.07;66.81;98506.50;342717;28;1764;-69
2023/03/24 00:44:56;;;;;;;4.32;1.70;;;;;;;15.09;67.12;98512.47;346062;28;1631;-69
2023/03/24 00:45:09;;;;;;;2.85;1.70;;;;;;;15.06;67.28;98510.06;343876;28;1341;-69
2023/03/24 00:45:24;;;;;;;2.70;1.80;;;;;;;15.07;67.23;98511.75;344646;28;1064;-69
2023/03/24 00:45:36;;;;;;;2.78;1.70;;;;;;;15.04;67.41;98508.50;345302;28;1097;-69
2023/03/24 00:45:48;;;;;;;3.47;1.70;;;;;;;15.01;67.58;98512.16;344196;28;1513;-69
2023/03/24 00:46:04;;;;;;;3.03;1.70;;;;;;;14.96;67.49;98511.63;344861;28;1110;-69
2023/03/24 00:46:29;;;;;;;2.38;1.77;;;;;;;14.95;67.51;98510.81;343681;28;1766;-69
2023/03/24 00:46:44;;;;;;;2.10;1.77;;;;;;;14.96;67.50;98511.63;345082;28;1189;-69
2023/03/24 00:47:00;;;;;;;2.15;1.60;;;;;;;14.96;67.45;98503.78;344153;28;1723;-69
2023/03/24 00:47:16;;;;;;;2.65;1.75;;;;;;;14.95;67.71;98512.56;345940;28;1059;-69
2023/03/24 00:47:29;;;;;;;2.50;1.80;;;;;;;14.97;67.74;98510.72;344784;28;1344;-69
2023/03/24 00:47:43;;;;;;;2.28;1.75;;;;;;;14.97;68.13;98511.53;343862;28;1276;-69
2023/03/24 00:47:56;;;;;;;2.30;1.58;;;;;;;14.98;67.62;98509.75;344829;28;1170;-69
2023/03/24 00:48:10;;;;;;;2.33;1.58;;;;;;;15.01;67.59;98511.31;344932;28;1015;-69
2023/03/24 00:48:23;;;;;;;2.40;1.70;;;;;;;15.00;67.54;98513.09;343341;28;1129;-69
2023/03/24 00:48:37;;;;;;;2.70;1.80;;;;;;;14.97;67.76;98510.72;343673;28;1102;-68
2023/03/24 00:48:52;;;;;;;2.20;1.63;;;;;;;14.91;68.06;98505.88;344102;28;1355;-68
2023/03/24 00:49:06;;;;;;;2.60;1.55;;;;;;;14.88;67.82;98506.09;344945;28;1101;-69
2023/03/24 00:49:24;;;;;;;2.80;1.60;;;;;;;14.89;67.88;98507.75;344434;28;1036;-69
2023/03/24 00:49:43;;;;;;;2.50;1.70;;;;;;;14.91;67.71;98506.72;344490;28;1545;-69
2023/03/24 00:49:56;;;;;;;2.22;1.63;;;;;;;14.91;67.67;98508.47;345149;28;1899;-69
2023/03/24 00:50:12;;;;;;;1.85;1.60;;;;;;;14.93;67.54;98506.59;346195;28;1228;-69
2023/03/24 00:50:25;;;;;;;2.30;1.60;;;;;;;14.96;67.44;98509.03;345861;28;1184;-69
2023/03/24 00:50:38;;;;;;;3.00;1.73;;;;;;;14.96;67.71;98514.25;346331;28;1155;-68
2023/03/24 00:50:51;;;;;;;2.88;1.70;;;;;;;14.96;67.62;98498.56;346132;28;1159;-68
2023/03/24 00:51:06;;;;;;;2.78;1.75;;;;;;;14.96;67.84;98503.78;346445;28;1191;-68
2023/03/24 00:51:18;;;;;;;2.05;1.70;;;;;;;14.94;67.82;98500.44;346441;28;913;-68
2023/03/24 00:51:36;;;;;;;2.05;1.60;;;;;;;14.90;67.96;98509.44;345790;28;1670;-68
2023/03/24 00:51:50;;;;;;;1.70;1.48;;;;;;;14.86;68.12;98507.97;346219;28;1359;-69
2023/03/24 00:52:09;;;;;;;2.38;1.60;;;;;;;14.86;67.95;98507.97;346560;28;1401;-69
2023/03/24 00:52:23;;;;;;;2.75;1.80;;;;;;;14.84;68.13;98504.63;346115;28;1203;-69
2023/03/24 00:52:36;;;;;;;2.20;1.80;;;;;;;14.81;67.96;98502.22;346323;28;1309;-69
2023/03/24 00:52:48;;;;;;;2.15;1.70;;;;;;;14.84;68.07;98504.63;346287;28;1384;-69
2023/03/24 00:53:00;;;;;;;2.28;1.55;;;;;;;14.84;68.04;98505.47;346454;28;1106;-69
2023/03/24 00:53:14;;;;;;;2.30;1.50;;;;;;;14.87;67.89;98504.41;345346;28;1584;-69
2023/03/24 00:53:28;;;;;;;1.90;1.52;;;;;;;14.90;67.83;98505.03;346132;28;1672;-69
2023/03/24 00:53:42;;;;;;;2.15;1.60;;;;;;;14.92;68.04;98500.53;346419;28;1001;-69
2023/03/24 00:53:56;;;;;;;2.28;1.63;;;;;;;14.94;67.91;98505.66;345083;28;1324;-69
2023/03/24 00:54:11;;;;;;;2.38;1.70;;;;;;;14.95;67.82;98507.31;345207;28;950;-69
2023/03/24 00:54:26;;;;;;;2.40;1.80;;;;;;;14.94;68.01;98496.03;345077;28;995;-69
2023/03/24 00:54:39;;;;;;;2.03;1.70;;;;;;;14.95;68.06;98502.09;344470;28;1032;-69
2023/03/24 00:54:57;;;;;;;2.30;1.63;;;;;;;14.97;67.89;98495.00;344842;28;1356;-69
2023/03/24 00:55:14;;;;;;;2.92;1.70;;;;;;;15.01;67.70;98496.47;343738;28;1288;-69
2023/03/24 00:55:27;;;;;;;3.95;1.70;;;;;;;15.05;67.46;98489.22;343666;28;1231;-69
2023/03/24 00:55:39;;;;;;;3.30;1.63;;;;;;;15.06;67.23;98499.59;343685;28;1246;-69
2023/03/24 00:55:51;;;;;;;2.72;1.58;;;;;;;15.03;67.40;98494.59;343349;28;1312;-69
2023/03/24 00:56:03;;;;;;;2.38;1.60;;;;;;;15.04;67.62;98493.63;343816;28;896;-69
2023/03/24 00:56:15;;;;;;;2.42;1.60;;;;;;;15.06;67.52;98496.13;342705;28;1932;-69
2023/03/24 00:56:30;;;;;;;2.60;1.80;;;;;;;15.07;67.41;98492.56;343301;28;1035;-69
2023/03/24 00:56:42;;;;;;;2.75;1.90;;;;;;;15.04;67.30;98496.25;343190;28;1917;-69
2023/03/24 00:56:54;;;;;;;2.63;1.80;;;;;;;15.08;67.33;98499.50;345173;28;1199;-69
2023/03/24 00:57:07;;;;;;;2.50;1.70;;;;;;;15.09;67.11;98498.53;346373;28;1097;-69
2023/03/24 00:57:24;;;;;;;2.42;1.60;;;;;;;15.10;67.12;98489.75;346731;28;1622;-69
2023/03/24 00:57:36;;;;;;;2.93;1.63;;;;;;;15.13;67.18;98497.38;347477;28;1198;-69
2023/03/24 00:57:49;;;;;;;2.97;1.70;;;;;;;15.13;67.00;98489.50;347466;28;1328;-69
2023/03/24 00:58:01;;;;;;;2.10;1.63;;;;;;;15.06;66.83;98493.53;347587;28;1166;-69
2023/03/24 00:58:16;;;;;;;1.80;1.50;;;;;;;15.05;66.82;98487.47;347371;28;1030;-69
2023/03/24 00:58:33;;;;;;;2.33;1.55;;;;;;;15.09;66.87;98488.06;347564;28;1085;-69
2023/03/24 00:58:45;;;;;;;2.50;1.80;;;;;;;15.11;66.78;98480.94;347263;28;1276;-69
2023/03/24 00:59:00;;;;;;;2.13;1.70;;;;;;;15.13;66.72;98490.38;346609;28;1276;-69
2023/03/24 00:59:13;;;;;;;2.70;1.60;;;;;;;15.13;66.61;98489.50;346244;28;1433;-69
2023/03/24 00:59:28;;;;;;;3.03;1.60;;;;;;;15.14;66.68;98492.03;346462;28;1078;-69
2023/03/24 00:59:47;;;;;;;2.20;1.52;;;;;;;15.15;66.70;98487.63;346376;28;1922;-69
2023/03/24 01:00:17;;;;;;;2.10;1.40;;;;;;;15.18;66.60;98487.44;345214;28;1630;-69
2023/03/24 01:00:29;;;;;;;2.72;1.73;;;;;;;15.11;66.64;98489.66;345729;28;1704;-69
2023/03/24 01:00:41;;;;;;;2.97;1.70;;;;;;;15.11;66.67;98489.66;346230;28;2052;-69
2023/03/24 01:00:56;;;;;;;3.03;1.77;;;;;;;15.13;66.40;98490.38;346311;28;1249;-69
2023/03/24 01:01:08;;;;;;;2.65;1.70;;;;;;;15.13;66.41;98490.38;346265;28;1019;-69
2023/03/24 01:01:20;;;;;;;3.17;1.92;;;;;;;15.08;66.50;98487.22;346205;28;1140;-69
2023/03/24 01:01:35;;;;;;;3.30;1.77;;;;;;;15.04;66.34;98485.78;346328;28;1172;-69
2023/03/24 01:01:47;;;;;;;3.15;1.75;;;;;;;14.93;66.65;98490.91;345798;28;1685;-69
2023/03/24 01:01:59;;;;;;;2.47;1.85;;;;;;;14.94;66.66;98490.81;346096;28;1070;-69
2023/03/24 01:02:11;;;;;;;3.15;2.00;;;;;;;15.00;66.57;98483.47;346126;28;1272;-69
2023/03/24 01:02:25;;;;;;;3.20;1.90;;;;;;;15.00;66.47;98489.53;346426;28;1697;-69
2023/03/24 01:02:37;;;;;;;2.78;1.52;;;;;;;15.02;66.29;98482.44;346119;28;1071;-69
2023/03/24 01:02:52;;;;;;;2.03;1.65;;;;;;;14.99;66.47;98490.50;345957;28;1287;-69
2023/03/24 01:03:04;;;;;;;2.28;1.70;;;;;;;15.00;66.65;98483.47;346073;28;1030;-69
2023/03/24 01:03:20;;;;;;;2.00;1.58;;;;;;;15.02;66.75;98487.66;346054;28;1239;-69
2023/03/24 01:03:33;;;;;;;1.75;1.50;;;;;;;15.05;66.35;98486.59;345076;28;1769;-69
2023/03/24 01:03:49;;;;;;;1.83;1.63;;;;;;;15.05;66.51;98492.69;345489;28;1638;-69
2023/03/24 01:04:02;;;;;;;1.77;1.60;;;;;;;15.06;66.82;98489.13;346130;28;1092;-69
2023/03/24 01:04:14;;;;;;;1.88;1.65;;;;;;;15.10;66.75;98487.97;346135;28;1931;-69
2023/03/24 01:04:27;;;;;;;2.35;1.63;;;;;;;15.01;66.48;98486.00;346118;28;1188;-69
2023/03/24 01:04:39;;;;;;;2.67;1.67;;;;;;;14.98;66.48;98483.59;345917;28;1025;-69
2023/03/24 01:04:58;;;;;;;2.50;1.70;;;;;;;14.90;66.37;98488.50;346043;28;1596;-69
2023/03/24 01:05:10;;;;;;;2.35;1.70;;;;;;;14.87;66.56;98488.72;345178;28;1134;-69
2023/03/24 01:05:26;;;;;;;1.85;1.55;;;;;;;14.91;66.42;98484.94;346171;28;1185;-69
2023/03/24 01:05:40;;;;;;;1.98;1.63;;;;;;;14.95;66.26;98487.25;345004;28;1301;-69
2023/03/24 01:06:00;;;;;;;2.75;1.70;;;;;;;15.00;66.31;98484.31;346085;28;1292;-69
2023/03/24 01:06:14;;;;;;;2.60;1.70;;;;;;;15.00;66.37;98484.31;346073;28;866;-69
2023/03/24 01:06:26;;;;;;;2.47;1.70;;;;;;;14.99;66.46;98493.13;346415;28;1216;-69
2023/03/24 01:06:39;;;;;;;2.50;1.60;;;;;;;15.01;66.42;98479.91;346532;28;1147;-69